Airport View

Enter AWOS ICAO identifier for current METAR.

ex. KFNL

KDPL 202215Z AUTO 00000KT 10SM CLR 23/21 A3019 RMK AO2

20 Oct 2020 22:24

Frequency: 120.675

Phone: 910-296-9688

Other Area AWOS: KCTZ - KGSB - KOAJ - KISO

TAF KGSB 202000Z 2020/2202 10004KT 9999 SCT030 BKN060 QNH3017INS BECMG 2108/2109 06003KT 6000 BR SCT005 BKN010 QNH3018INS BECMG 2111/2112 04006KT 9999 NSW SCT005 BKN010 OVC020 QNH3023INS BECMG 2114/2115 04006KT 9999 SCT040 QNH3024INS TX27/2020Z TN16/2112Z